BAW2721 EGPF-BIKF
Flight info
| Callsign | BAW2721 |
|---|---|
| Flight time | 2h 23m |
| Altitude | 35000 |
| Route | LOMON DCT ORSUM DCT NINEX DCT BALIX/M079F350 DCT BREKI DCT BASLU |
| Aircraft | B738/M-SDE2E3FGHIRWXY/LB1 |
Departure
| Time | 2026-05-06 13:36 |
|---|---|
| Airport | Glasgow Airport (EGPF) |
Arrival
| Time | 2026-05-06 15:59 |
|---|---|
| Airport | Keflavik International Airport (BIKF) |
| Time | Latitude | Longitude | Altitude | Speed | Heading |
|---|---|---|---|---|---|
| 2026-05-06 13:09 | 55.86718 | -4.43420 | 32 ft | 0 kts | 180° |
| 2026-05-06 13:17 | 55.86730 | -4.43420 | 32 ft | 4 kts | 176° |
| 2026-05-06 13:18 | 55.86754 | -4.43432 | 32 ft | 4 kts | 136° |
| 2026-05-06 13:18 | 55.86766 | -4.43470 | 32 ft | 4 kts | 94° |
| 2026-05-06 13:18 | 55.86765 | -4.43501 | 31 ft | 4 kts | 76° |
| 2026-05-06 13:18 | 55.86764 | -4.43510 | 30 ft | 2 kts | 74° |
| 2026-05-06 13:23 | 55.86718 | -4.43420 | 32 ft | 0 kts | 180° |
| 2026-05-06 13:29 | 55.86734 | -4.43421 | 32 ft | 4 kts | 172° |
| 2026-05-06 13:29 | 55.86757 | -4.43437 | 32 ft | 4 kts | 128° |
| 2026-05-06 13:30 | 55.86767 | -4.43478 | 32 ft | 4 kts | 89° |
| 2026-05-06 13:30 | 55.86765 | -4.43511 | 32 ft | 0 kts | 74° |
| 2026-05-06 13:32 | 55.86765 | -4.43505 | 32 ft | 4 kts | 74° |
| 2026-05-06 13:32 | 55.86785 | -4.43386 | 32 ft | 12 kts | 74° |
| 2026-05-06 13:32 | 55.86811 | -4.43226 | 32 ft | 14 kts | 74° |
| 2026-05-06 13:32 | 55.86844 | -4.43022 | 32 ft | 20 kts | 75° |
| 2026-05-06 13:33 | 55.86953 | -4.42880 | 32 ft | 20 kts | 28° |
| 2026-05-06 13:33 | 55.87075 | -4.42790 | 32 ft | 19 kts | 20° |
| 2026-05-06 13:33 | 55.87197 | -4.42710 | 33 ft | 18 kts | 20° |
| 2026-05-06 13:33 | 55.87315 | -4.42629 | 32 ft | 18 kts | 21° |
| 2026-05-06 13:34 | 55.87410 | -4.42542 | 32 ft | 12 kts | 50° |
| 2026-05-06 13:34 | 55.87467 | -4.42434 | 34 ft | 12 kts | 49° |
| 2026-05-06 13:34 | 55.87538 | -4.42301 | 31 ft | 21 kts | 46° |
| 2026-05-06 13:34 | 55.87666 | -4.42144 | 29 ft | 23 kts | 2° |
| 2026-05-06 13:35 | 55.87753 | -4.42275 | 32 ft | 4 kts | 242° |
| 2026-05-06 13:35 | 55.87738 | -4.42304 | 33 ft | 0 kts | 225° |
| 2026-05-06 13:35 | 55.87734 | -4.42311 | 33 ft | 7 kts | 225° |
| 2026-05-06 13:35 | 55.87533 | -4.42686 | 37 ft | 78 kts | 226° |
| 2026-05-06 13:36 | 55.86997 | -4.43688 | 37 ft | 142 kts | 227° |
| 2026-05-06 13:36 | 55.86244 | -4.45175 | 310 ft | 171 kts | 229° |
| 2026-05-06 13:36 | 55.85469 | -4.46863 | 988 ft | 182 kts | 229° |
| 2026-05-06 13:36 | 55.84660 | -4.48608 | 1887 ft | 181 kts | 229° |
| 2026-05-06 13:37 | 55.83867 | -4.50317 | 2772 ft | 179 kts | 229° |
| 2026-05-06 13:37 | 55.83072 | -4.52067 | 3455 ft | 186 kts | 229° |
| 2026-05-06 13:37 | 55.82223 | -4.53876 | 4082 ft | 194 kts | 226° |
| 2026-05-06 13:37 | 55.81327 | -4.55663 | 4770 ft | 194 kts | 228° |
| 2026-05-06 13:38 | 55.80423 | -4.57483 | 5308 ft | 198 kts | 228° |
| 2026-05-06 13:38 | 55.79534 | -4.59331 | 5937 ft | 194 kts | 231° |
| 2026-05-06 13:38 | 55.78868 | -4.61442 | 6334 ft | 203 kts | 250° |
| 2026-05-06 13:38 | 55.78673 | -4.64010 | 6084 ft | 213 kts | 271° |
| 2026-05-06 13:39 | 55.79002 | -4.66536 | 6037 ft | 214 kts | 293° |
| 2026-05-06 13:39 | 55.80021 | -4.68679 | 5739 ft | 234 kts | 328° |
| 2026-05-06 13:39 | 55.81566 | -4.69391 | 6345 ft | 238 kts | 359° |
| 2026-05-06 13:39 | 55.83277 | -4.68760 | 6479 ft | 267 kts | 20° |
| 2026-05-06 13:40 | 55.84941 | -4.67378 | 7303 ft | 257 kts | 29° |
| 2026-05-06 13:40 | 55.86415 | -4.65684 | 8137 ft | 257 kts | 35° |
| 2026-05-06 13:40 | 55.87849 | -4.63722 | 8769 ft | 263 kts | 38° |
| 2026-05-06 13:40 | 55.89267 | -4.61626 | 9452 ft | 267 kts | 39° |
| 2026-05-06 13:41 | 55.90661 | -4.59445 | 10187 ft | 267 kts | 40° |
| 2026-05-06 13:41 | 55.92036 | -4.57197 | 10854 ft | 269 kts | 41° |
| 2026-05-06 13:41 | 55.93403 | -4.54886 | 11486 ft | 273 kts | 42° |
| 2026-05-06 13:41 | 55.94777 | -4.52496 | 12103 ft | 278 kts | 43° |
| 2026-05-06 13:42 | 55.96149 | -4.50034 | 12792 ft | 280 kts | 44° |
| 2026-05-06 13:42 | 55.97500 | -4.47505 | 13513 ft | 283 kts | 45° |
| 2026-05-06 13:42 | 55.98841 | -4.44896 | 14149 ft | 288 kts | 46° |
| 2026-05-06 13:42 | 56.00215 | -4.42320 | 14670 ft | 294 kts | 35° |
| 2026-05-06 13:43 | 56.01955 | -4.40241 | 14886 ft | 310 kts | 24° |
| 2026-05-06 13:43 | 56.03970 | -4.38793 | 15498 ft | 309 kts | 13° |
| 2026-05-06 13:43 | 56.05993 | -4.38017 | 16771 ft | 285 kts | 3° |
| 2026-05-06 13:43 | 56.07904 | -4.37781 | 17925 ft | 269 kts | 355° |
| 2026-05-06 13:44 | 56.09799 | -4.37968 | 18307 ft | 281 kts | 349° |
| 2026-05-06 13:44 | 56.11819 | -4.38549 | 18242 ft | 307 kts | 344° |
| 2026-05-06 13:44 | 56.13937 | -4.39474 | 18609 ft | 314 kts | 340° |
| 2026-05-06 13:44 | 56.15964 | -4.40608 | 19692 ft | 285 kts | 336° |
| 2026-05-06 13:45 | 56.16964 | -4.41126 | 23092 ft | 62 kts | 341° |
| 2026-05-06 13:45 | 56.17755 | -4.41261 | 18391 ft | 90 kts | 316° |
| 2026-05-06 13:45 | 56.19119 | -4.42604 | 10449 ft | 460 kts | 298° |
| 2026-05-06 13:46 | 56.20957 | -4.46468 | 6221 ft | 478 kts | 330° |
| 2026-05-06 13:46 | 56.23954 | -4.47512 | 3357 ft | 422 kts | 333° |
| 2026-05-06 13:46 | 56.25191 | -4.52443 | 799 ft | 440 kts | 274° |
| 2026-05-06 13:46 | 56.26462 | -4.56691 | 793 ft | 383 kts | 334° |
| 2026-05-06 13:47 | 56.27573 | -4.57614 | 4966 ft | 102 kts | 140° |
| 2026-05-06 13:47 | 56.26848 | -4.56383 | 3932 ft | 164 kts | 137° |
| 2026-05-06 13:47 | 56.25748 | -4.54101 | 1385 ft | 279 kts | 109° |
| 2026-05-06 13:47 | 56.25442 | -4.50455 | 541 ft | 289 kts | 98° |
| 2026-05-06 13:48 | 56.25146 | -4.47062 | 435 ft | 265 kts | 106° |
| 2026-05-06 13:48 | 56.24178 | -4.44628 | 438 ft | 234 kts | 154° |
| 2026-05-06 13:48 | 56.23094 | -4.43665 | 2126 ft | 59 kts | 187° |
| 2026-05-06 13:48 | 56.22965 | -4.44058 | 2803 ft | 64 kts | 290° |
| 2026-05-06 13:49 | 56.23414 | -4.44637 | 458 ft | 0 kts | 344° |
| 2026-05-06 13:49 | 55.86718 | -4.43420 | 457 ft | 4 kts | 180° |
| 2026-05-06 13:53 | 55.86733 | -4.43420 | 32 ft | 4 kts | 174° |
| 2026-05-06 13:53 | 55.86756 | -4.43435 | 32 ft | 4 kts | 131° |
| 2026-05-06 13:54 | 55.86766 | -4.43475 | 32 ft | 4 kts | 92° |
| 2026-05-06 13:54 | 55.86765 | -4.43512 | 32 ft | 0 kts | 74° |
| 2026-05-06 13:56 | 55.86789 | -4.43354 | 32 ft | 33 kts | 74° |
| 2026-05-06 13:56 | 55.86859 | -4.42978 | 31 ft | 31 kts | 49° |
| 2026-05-06 13:56 | 55.87041 | -4.42812 | 32 ft | 29 kts | 20° |
| 2026-05-06 13:57 | 55.87222 | -4.42689 | 33 ft | 27 kts | 19° |
| 2026-05-06 13:57 | 55.87391 | -4.42567 | 32 ft | 28 kts | 33° |
| 2026-05-06 13:57 | 55.87538 | -4.42301 | 31 ft | 32 kts | 46° |
| 2026-05-06 13:57 | 55.87709 | -4.42160 | 29 ft | 27 kts | 338° |
| 2026-05-06 13:58 | 55.87713 | -4.42351 | 35 ft | 16 kts | 226° |
| 2026-05-06 13:58 | 55.87541 | -4.42669 | 38 ft | 69 kts | 227° |
| 2026-05-06 13:58 | 55.87046 | -4.43597 | 38 ft | 135 kts | 226° |
| 2026-05-06 13:58 | 55.86312 | -4.45014 | 311 ft | 165 kts | 226° |
| 2026-05-06 13:59 | 55.85529 | -4.46533 | 1091 ft | 167 kts | 225° |
| 2026-05-06 13:59 | 55.84730 | -4.48051 | 1907 ft | 169 kts | 225° |
| 2026-05-06 13:59 | 55.83870 | -4.49679 | 2312 ft | 195 kts | 225° |
| 2026-05-06 13:59 | 55.82870 | -4.51519 | 2559 ft | 218 kts | 224° |
| 2026-05-06 14:00 | 55.81763 | -4.53454 | 3036 ft | 228 kts | 223° |
| 2026-05-06 14:00 | 55.80695 | -4.55722 | 3361 ft | 251 kts | 238° |
| 2026-05-06 14:00 | 55.80121 | -4.58669 | 4162 ft | 256 kts | 260° |
| 2026-05-06 14:00 | 55.80242 | -4.61850 | 4952 ft | 263 kts | 286° |
| 2026-05-06 14:01 | 55.81146 | -4.64686 | 5692 ft | 268 kts | 311° |
| 2026-05-06 14:01 | 55.82671 | -4.66603 | 6025 ft | 275 kts | 336° |
| 2026-05-06 14:01 | 55.84558 | -4.67147 | 6034 ft | 278 kts | 5° |
| 2026-05-06 14:01 | 55.86375 | -4.66105 | 6061 ft | 277 kts | 32° |
| 2026-05-06 14:02 | 55.87828 | -4.63863 | 6073 ft | 277 kts | 46° |
| 2026-05-06 14:02 | 55.89179 | -4.61369 | 6058 ft | 281 kts | 45° |
| 2026-05-06 14:02 | 55.90556 | -4.58892 | 6043 ft | 280 kts | 45° |
| 2026-05-06 14:02 | 55.91936 | -4.56448 | 6040 ft | 279 kts | 44° |
| 2026-05-06 14:03 | 55.93336 | -4.54059 | 6048 ft | 278 kts | 44° |
| 2026-05-06 14:03 | 55.94861 | -4.52073 | 6024 ft | 276 kts | 21° |
| 2026-05-06 14:03 | 55.96732 | -4.51603 | 6057 ft | 273 kts | 353° |
| 2026-05-06 14:03 | 55.98559 | -4.52475 | 6057 ft | 273 kts | 336° |
| 2026-05-06 14:04 | 56.00321 | -4.53740 | 6048 ft | 274 kts | 336° |
| 2026-05-06 14:04 | 56.02091 | -4.55016 | 6036 ft | 275 kts | 336° |
| 2026-05-06 14:04 | 56.03866 | -4.56278 | 6046 ft | 275 kts | 336° |
| 2026-05-06 14:04 | 56.05651 | -4.57535 | 6035 ft | 275 kts | 336° |
| 2026-05-06 14:05 | 56.07432 | -4.58788 | 6140 ft | 277 kts | 336° |
| 2026-05-06 14:05 | 56.09225 | -4.60051 | 6855 ft | 276 kts | 336° |
| 2026-05-06 14:05 | 56.11019 | -4.61314 | 7647 ft | 278 kts | 336° |
| 2026-05-06 14:05 | 56.12824 | -4.62588 | 8438 ft | 279 kts | 336° |
| 2026-05-06 14:06 | 56.14642 | -4.63873 | 9219 ft | 282 kts | 336° |
| 2026-05-06 14:06 | 56.16474 | -4.65171 | 9991 ft | 284 kts | 336° |
| 2026-05-06 14:06 | 56.18344 | -4.66499 | 10472 ft | 298 kts | 336° |
| 2026-05-06 14:06 | 56.20318 | -4.67900 | 10643 ft | 320 kts | 336° |
| 2026-05-06 14:07 | 56.22486 | -4.69441 | 10864 ft | 340 kts | 336° |
| 2026-05-06 14:07 | 56.24690 | -4.71005 | 11387 ft | 348 kts | 336° |
| 2026-05-06 14:07 | 56.26947 | -4.72606 | 12081 ft | 349 kts | 336° |
| 2026-05-06 14:07 | 56.29213 | -4.74213 | 12769 ft | 352 kts | 336° |
| 2026-05-06 14:08 | 56.31498 | -4.75838 | 13515 ft | 355 kts | 336° |
| 2026-05-06 14:08 | 56.33810 | -4.77486 | 14230 ft | 357 kts | 335° |
| 2026-05-06 14:08 | 56.36126 | -4.79139 | 14927 ft | 359 kts | 335° |
| 2026-05-06 14:08 | 56.38465 | -4.80813 | 15618 ft | 363 kts | 335° |
| 2026-05-06 14:09 | 56.40818 | -4.82498 | 16321 ft | 366 kts | 335° |
| 2026-05-06 14:09 | 56.43200 | -4.84207 | 17017 ft | 369 kts | 335° |
| 2026-05-06 14:09 | 56.45593 | -4.85926 | 17706 ft | 372 kts | 335° |
| 2026-05-06 14:09 | 56.48005 | -4.87661 | 18382 ft | 375 kts | 335° |
| 2026-05-06 14:10 | 56.50444 | -4.89414 | 18965 ft | 377 kts | 334° |
| 2026-05-06 14:10 | 56.52889 | -4.91178 | 19575 ft | 379 kts | 334° |
| 2026-05-06 14:10 | 56.55345 | -4.92953 | 20167 ft | 381 kts | 334° |
| 2026-05-06 14:10 | 56.57815 | -4.94739 | 20767 ft | 382 kts | 334° |
| 2026-05-06 14:11 | 56.60272 | -4.96519 | 21268 ft | 386 kts | 334° |
| 2026-05-06 14:11 | 56.62779 | -4.98337 | 21827 ft | 389 kts | 334° |
| 2026-05-06 14:11 | 56.65294 | -5.00162 | 22395 ft | 391 kts | 334° |
| 2026-05-06 14:11 | 56.67826 | -5.01987 | 22925 ft | 392 kts | 334° |
| 2026-05-06 14:12 | 56.70369 | -5.03842 | 23426 ft | 396 kts | 334° |
| 2026-05-06 14:12 | 56.72938 | -5.05725 | 23835 ft | 399 kts | 334° |
| 2026-05-06 14:12 | 56.75523 | -5.07617 | 24316 ft | 400 kts | 334° |
| 2026-05-06 14:12 | 56.78110 | -5.09519 | 24770 ft | 402 kts | 334° |
| 2026-05-06 14:13 | 56.80718 | -5.11429 | 25178 ft | 405 kts | 334° |
| 2026-05-06 14:13 | 56.83338 | -5.13348 | 25583 ft | 407 kts | 334° |
| 2026-05-06 14:13 | 56.85973 | -5.15282 | 25978 ft | 409 kts | 334° |
| 2026-05-06 14:13 | 56.88626 | -5.17233 | 26360 ft | 411 kts | 334° |
| 2026-05-06 14:14 | 56.91285 | -5.19192 | 26742 ft | 413 kts | 334° |
| 2026-05-06 14:14 | 56.93960 | -5.21168 | 27118 ft | 415 kts | 334° |
| 2026-05-06 14:14 | 56.96608 | -5.23125 | 27461 ft | 417 kts | 334° |
| 2026-05-06 14:14 | 56.99306 | -5.25123 | 27806 ft | 419 kts | 334° |
| 2026-05-06 14:15 | 57.02037 | -5.27197 | 28245 ft | 418 kts | 330° |
| 2026-05-06 14:15 | 57.04515 | -5.29823 | 28639 ft | 414 kts | 322° |
| 2026-05-06 14:15 | 57.06778 | -5.33073 | 28982 ft | 413 kts | 315° |
| 2026-05-06 14:15 | 57.08759 | -5.36878 | 29339 ft | 411 kts | 309° |
| 2026-05-06 14:16 | 57.10621 | -5.40886 | 29633 ft | 413 kts | 308° |
| 2026-05-06 14:16 | 57.12482 | -5.44944 | 29966 ft | 414 kts | 308° |
| 2026-05-06 14:16 | 57.14334 | -5.48991 | 30380 ft | 412 kts | 308° |
| 2026-05-06 14:16 | 57.16177 | -5.53011 | 30792 ft | 410 kts | 308° |
| 2026-05-06 14:17 | 57.18024 | -5.57032 | 31117 ft | 411 kts | 308° |
| 2026-05-06 14:17 | 57.19871 | -5.61048 | 31419 ft | 411 kts | 308° |
| 2026-05-06 14:17 | 57.21719 | -5.65062 | 31775 ft | 410 kts | 309° |
| 2026-05-06 14:17 | 57.23564 | -5.69070 | 32141 ft | 408 kts | 309° |
| 2026-05-06 14:18 | 57.25395 | -5.73053 | 32533 ft | 407 kts | 309° |
| 2026-05-06 14:18 | 57.27222 | -5.77034 | 32900 ft | 406 kts | 309° |
| 2026-05-06 14:18 | 57.29051 | -5.81025 | 33218 ft | 405 kts | 309° |
| 2026-05-06 14:18 | 57.30847 | -5.84948 | 33488 ft | 406 kts | 309° |
| 2026-05-06 14:19 | 57.32669 | -5.88937 | 33787 ft | 405 kts | 309° |
| 2026-05-06 14:19 | 57.34486 | -5.92922 | 34090 ft | 405 kts | 309° |
| 2026-05-06 14:19 | 57.36302 | -5.96911 | 34308 ft | 405 kts | 309° |
| 2026-05-06 14:19 | 57.38116 | -6.00904 | 34619 ft | 402 kts | 309° |
| 2026-05-06 14:20 | 57.39903 | -6.04841 | 35000 ft | 399 kts | 309° |
| 2026-05-06 14:20 | 57.41691 | -6.08788 | 35157 ft | 401 kts | 309° |
| 2026-05-06 14:20 | 57.45310 | -6.16801 | 35342 ft | 408 kts | 309° |
| 2026-05-06 14:21 | 57.47134 | -6.20849 | 35510 ft | 409 kts | 308° |
| 2026-05-06 14:21 | 57.48958 | -6.24903 | 35724 ft | 409 kts | 308° |
| 2026-05-06 14:21 | 57.50786 | -6.28972 | 35924 ft | 411 kts | 308° |
| 2026-05-06 14:21 | 57.52619 | -6.33061 | 36000 ft | 412 kts | 308° |
| 2026-05-06 14:22 | 57.56287 | -6.41262 | 36019 ft | 412 kts | 308° |
| 2026-05-06 14:22 | 57.59943 | -6.49467 | 36035 ft | 411 kts | 308° |
| 2026-05-06 14:23 | 57.63570 | -6.57633 | 36025 ft | 411 kts | 308° |
| 2026-05-06 14:23 | 57.67214 | -6.65867 | 36026 ft | 411 kts | 308° |
| 2026-05-06 14:24 | 57.70857 | -6.74126 | 36032 ft | 411 kts | 308° |
| 2026-05-06 14:24 | 57.74491 | -6.82395 | 36069 ft | 411 kts | 308° |
| 2026-05-06 14:25 | 57.78126 | -6.90696 | 36039 ft | 412 kts | 308° |
| 2026-05-06 14:25 | 57.81757 | -6.99016 | 36025 ft | 412 kts | 308° |
| 2026-05-06 14:26 | 57.85382 | -7.07350 | 36024 ft | 412 kts | 308° |
| 2026-05-06 14:26 | 57.89002 | -7.15704 | 36025 ft | 412 kts | 308° |
| 2026-05-06 14:27 | 57.92611 | -7.24060 | 36024 ft | 412 kts | 307° |
| 2026-05-06 14:27 | 57.96196 | -7.32392 | 36025 ft | 411 kts | 307° |
| 2026-05-06 14:28 | 57.99790 | -7.40773 | 36031 ft | 410 kts | 307° |
| 2026-05-06 14:28 | 58.03367 | -7.49145 | 36021 ft | 409 kts | 307° |
| 2026-05-06 14:29 | 58.06933 | -7.57518 | 36013 ft | 408 kts | 307° |
| 2026-05-06 14:29 | 58.10479 | -7.65876 | 36015 ft | 406 kts | 307° |
| 2026-05-06 14:30 | 58.14004 | -7.74213 | 36015 ft | 405 kts | 307° |
| 2026-05-06 14:30 | 58.17499 | -7.82510 | 36015 ft | 405 kts | 307° |
| 2026-05-06 14:31 | 58.21007 | -7.90867 | 36016 ft | 404 kts | 307° |
| 2026-05-06 14:31 | 58.24506 | -7.99229 | 36020 ft | 405 kts | 307° |
| 2026-05-06 14:32 | 58.28014 | -8.07647 | 36006 ft | 407 kts | 306° |
| 2026-05-06 14:32 | 58.31519 | -8.16085 | 36007 ft | 407 kts | 306° |
| 2026-05-06 14:33 | 58.35020 | -8.24543 | 35999 ft | 406 kts | 306° |
| 2026-05-06 14:33 | 58.38512 | -8.33008 | 35997 ft | 406 kts | 306° |
| 2026-05-06 14:34 | 58.41969 | -8.41422 | 35997 ft | 405 kts | 306° |
| 2026-05-06 14:34 | 58.45435 | -8.49887 | 35990 ft | 404 kts | 306° |
| 2026-05-06 14:35 | 58.48890 | -8.58353 | 35991 ft | 403 kts | 306° |
| 2026-05-06 14:35 | 58.52331 | -8.66817 | 35988 ft | 403 kts | 306° |
| 2026-05-06 14:36 | 58.55181 | -8.73851 | 35987 ft | 402 kts | 306° |
| 2026-05-06 14:36 | 58.58605 | -8.82328 | 35987 ft | 401 kts | 305° |
| 2026-05-06 14:37 | 58.62016 | -8.90803 | 35973 ft | 401 kts | 305° |
| 2026-05-06 14:37 | 58.65410 | -8.99266 | 35974 ft | 399 kts | 305° |
| 2026-05-06 14:38 | 58.68786 | -9.07715 | 35977 ft | 398 kts | 305° |
| 2026-05-06 14:38 | 58.72148 | -9.16159 | 35978 ft | 398 kts | 305° |
| 2026-05-06 14:39 | 58.75513 | -9.24642 | 35954 ft | 398 kts | 305° |
| 2026-05-06 14:39 | 58.78846 | -9.33073 | 35959 ft | 398 kts | 305° |
| 2026-05-06 14:40 | 58.82196 | -9.41575 | 35950 ft | 398 kts | 305° |
| 2026-05-06 14:40 | 58.85521 | -9.50109 | 35954 ft | 397 kts | 302° |
| 2026-05-06 14:41 | 58.88304 | -9.59288 | 35942 ft | 396 kts | 297° |
| 2026-05-06 14:41 | 58.90958 | -9.68614 | 35933 ft | 396 kts | 297° |
| 2026-05-06 14:42 | 58.93637 | -9.77923 | 35932 ft | 396 kts | 297° |
| 2026-05-06 14:42 | 58.96332 | -9.87248 | 35937 ft | 398 kts | 297° |
| 2026-05-06 14:43 | 58.99034 | -9.96623 | 35928 ft | 399 kts | 297° |
| 2026-05-06 14:43 | 59.02329 | -10.05341 | 35930 ft | 404 kts | 308° |
| 2026-05-06 14:44 | 59.06037 | -10.13475 | 35913 ft | 405 kts | 308° |
| 2026-05-06 14:45 | 59.11631 | -10.25863 | 35921 ft | 407 kts | 308° |
| 2026-05-06 14:45 | 59.15342 | -10.34169 | 35907 ft | 406 kts | 307° |
| 2026-05-06 14:46 | 59.19042 | -10.42477 | 35921 ft | 405 kts | 307° |
| 2026-05-06 14:46 | 59.22725 | -10.50780 | 35908 ft | 404 kts | 307° |
| 2026-05-06 14:47 | 59.26395 | -10.59086 | 35902 ft | 403 kts | 307° |
| 2026-05-06 14:47 | 59.30043 | -10.67374 | 35893 ft | 401 kts | 307° |
| 2026-05-06 14:48 | 59.33679 | -10.75664 | 35896 ft | 400 kts | 307° |
| 2026-05-06 14:48 | 59.37301 | -10.83953 | 35896 ft | 400 kts | 307° |
| 2026-05-06 14:49 | 59.40915 | -10.92251 | 35891 ft | 400 kts | 307° |
| 2026-05-06 14:49 | 59.44507 | -11.00532 | 35897 ft | 404 kts | 307° |
| 2026-05-06 14:50 | 59.48180 | -11.09033 | 35879 ft | 411 kts | 307° |
| 2026-05-06 14:50 | 59.51875 | -11.17623 | 35886 ft | 411 kts | 306° |
| 2026-05-06 14:51 | 59.55575 | -11.26232 | 35882 ft | 411 kts | 306° |
| 2026-05-06 14:51 | 59.59257 | -11.34839 | 35886 ft | 410 kts | 306° |
| 2026-05-06 14:52 | 59.62927 | -11.43451 | 35884 ft | 409 kts | 306° |
| 2026-05-06 14:52 | 59.66582 | -11.52063 | 35884 ft | 408 kts | 306° |
| 2026-05-06 14:53 | 59.70231 | -11.60695 | 35895 ft | 409 kts | 306° |
| 2026-05-06 14:53 | 59.73853 | -11.69295 | 35885 ft | 409 kts | 306° |
| 2026-05-06 14:54 | 59.77500 | -11.77984 | 35889 ft | 410 kts | 306° |
| 2026-05-06 14:54 | 59.81149 | -11.86713 | 35889 ft | 411 kts | 306° |
| 2026-05-06 14:55 | 59.84798 | -11.95485 | 35872 ft | 412 kts | 306° |
| 2026-05-06 14:55 | 59.88445 | -12.04273 | 35884 ft | 412 kts | 306° |
| 2026-05-06 14:56 | 59.92099 | -12.13109 | 35891 ft | 414 kts | 306° |
| 2026-05-06 14:56 | 59.95761 | -12.21998 | 35896 ft | 416 kts | 306° |
| 2026-05-06 14:57 | 59.99433 | -12.30949 | 35878 ft | 417 kts | 306° |
| 2026-05-06 14:57 | 60.03113 | -12.39954 | 35875 ft | 418 kts | 306° |
| 2026-05-06 14:58 | 60.06768 | -12.48933 | 35885 ft | 419 kts | 306° |
| 2026-05-06 14:58 | 60.10451 | -12.58016 | 35885 ft | 420 kts | 306° |
| 2026-05-06 14:59 | 60.14130 | -12.67126 | 35874 ft | 420 kts | 306° |
| 2026-05-06 14:59 | 60.17809 | -12.76273 | 35898 ft | 421 kts | 306° |
| 2026-05-06 15:00 | 60.21478 | -12.85450 | 35880 ft | 421 kts | 306° |
| 2026-05-06 15:00 | 60.25148 | -12.94634 | 35893 ft | 421 kts | 305° |
| 2026-05-06 15:01 | 60.28811 | -13.03843 | 35888 ft | 421 kts | 305° |
| 2026-05-06 15:01 | 60.32473 | -13.13084 | 35892 ft | 421 kts | 305° |
| 2026-05-06 15:02 | 60.36097 | -13.22287 | 35887 ft | 421 kts | 305° |
| 2026-05-06 15:02 | 60.39740 | -13.31564 | 35890 ft | 422 kts | 306° |
| 2026-05-06 15:03 | 60.43387 | -13.40864 | 35904 ft | 422 kts | 305° |
| 2026-05-06 15:03 | 60.47027 | -13.50218 | 35894 ft | 423 kts | 305° |
| 2026-05-06 15:04 | 60.50671 | -13.59588 | 35890 ft | 423 kts | 305° |
| 2026-05-06 15:04 | 60.54311 | -13.69006 | 35890 ft | 424 kts | 304° |
| 2026-05-06 15:05 | 60.57947 | -13.78443 | 35896 ft | 424 kts | 306° |
| 2026-05-06 15:05 | 60.61591 | -13.87894 | 35929 ft | 424 kts | 304° |
| 2026-05-06 15:06 | 60.65205 | -13.97423 | 35912 ft | 425 kts | 305° |
| 2026-05-06 15:06 | 60.68826 | -14.06968 | 35905 ft | 426 kts | 305° |
| 2026-05-06 15:07 | 60.72428 | -14.16500 | 35911 ft | 427 kts | 305° |
| 2026-05-06 15:07 | 60.76083 | -14.26088 | 35917 ft | 427 kts | 304° |
| 2026-05-06 15:08 | 60.79688 | -14.35730 | 35899 ft | 426 kts | 304° |
| 2026-05-06 15:08 | 60.83292 | -14.45373 | 35913 ft | 426 kts | 304° |
| 2026-05-06 15:09 | 60.86891 | -14.55005 | 35902 ft | 425 kts | 304° |
| 2026-05-06 15:09 | 60.90446 | -14.64708 | 35933 ft | 425 kts | 304° |
| 2026-05-06 15:10 | 60.94026 | -14.74407 | 35914 ft | 426 kts | 305° |
| 2026-05-06 15:10 | 60.97614 | -14.84110 | 35902 ft | 426 kts | 305° |
| 2026-05-06 15:11 | 61.01200 | -14.93826 | 35911 ft | 426 kts | 304° |
| 2026-05-06 15:11 | 61.04758 | -15.03591 | 35906 ft | 425 kts | 303° |
| 2026-05-06 15:12 | 61.08265 | -15.13316 | 35910 ft | 425 kts | 305° |
| 2026-05-06 15:12 | 61.11826 | -15.23110 | 35927 ft | 427 kts | 304° |
| 2026-05-06 15:13 | 61.15370 | -15.33004 | 35915 ft | 428 kts | 304° |
| 2026-05-06 15:13 | 61.18909 | -15.42965 | 35939 ft | 430 kts | 304° |
| 2026-05-06 15:14 | 61.22485 | -15.52936 | 35919 ft | 431 kts | 304° |
| 2026-05-06 15:14 | 61.26031 | -15.62888 | 35914 ft | 427 kts | 303° |
| 2026-05-06 15:15 | 61.29551 | -15.72759 | 35941 ft | 427 kts | 304° |
| 2026-05-06 15:15 | 61.33070 | -15.82725 | 35939 ft | 428 kts | 303° |
| 2026-05-06 15:16 | 61.36568 | -15.92760 | 35933 ft | 429 kts | 304° |
| 2026-05-06 15:16 | 61.40108 | -16.02845 | 35960 ft | 432 kts | 304° |
| 2026-05-06 15:17 | 61.43633 | -16.12958 | 35953 ft | 429 kts | 303° |
| 2026-05-06 15:17 | 61.47117 | -16.23097 | 35966 ft | 429 kts | 304° |
| 2026-05-06 15:18 | 61.50622 | -16.33266 | 35969 ft | 432 kts | 303° |
| 2026-05-06 15:18 | 61.54108 | -16.43483 | 35975 ft | 430 kts | 303° |
| 2026-05-06 15:19 | 61.57553 | -16.53705 | 35966 ft | 434 kts | 304° |
| 2026-05-06 15:19 | 61.61061 | -16.63888 | 35967 ft | 424 kts | 303° |
| 2026-05-06 15:20 | 61.64480 | -16.73947 | 35978 ft | 425 kts | 303° |
| 2026-05-06 15:20 | 61.67927 | -16.84171 | 35998 ft | 432 kts | 303° |
| 2026-05-06 15:21 | 61.71411 | -16.94527 | 35995 ft | 432 kts | 303° |
| 2026-05-06 15:21 | 61.74877 | -17.04922 | 35995 ft | 436 kts | 304° |
| 2026-05-06 15:22 | 61.78370 | -17.15390 | 35979 ft | 435 kts | 304° |
| 2026-05-06 15:22 | 61.81853 | -17.25894 | 36033 ft | 436 kts | 303° |
| 2026-05-06 15:23 | 61.85301 | -17.36367 | 35997 ft | 432 kts | 304° |
| 2026-05-06 15:23 | 61.88746 | -17.46858 | 36012 ft | 434 kts | 303° |
| 2026-05-06 15:24 | 61.92174 | -17.57359 | 36015 ft | 429 kts | 303° |
| 2026-05-06 15:24 | 61.95531 | -17.67677 | 36023 ft | 424 kts | 303° |
| 2026-05-06 15:25 | 61.98899 | -17.78104 | 36038 ft | 432 kts | 304° |
| 2026-05-06 15:25 | 62.02300 | -17.88651 | 36049 ft | 436 kts | 303° |
| 2026-05-06 15:26 | 62.05732 | -17.99340 | 36016 ft | 437 kts | 304° |
| 2026-05-06 15:26 | 62.08603 | -18.08327 | 36056 ft | 438 kts | 304° |
| 2026-05-06 15:27 | 62.12016 | -18.19053 | 36066 ft | 440 kts | 303° |
| 2026-05-06 15:27 | 62.15442 | -18.29877 | 36071 ft | 436 kts | 303° |
| 2026-05-06 15:28 | 62.18811 | -18.40574 | 36052 ft | 433 kts | 303° |
| 2026-05-06 15:28 | 62.22187 | -18.51343 | 36079 ft | 436 kts | 304° |
| 2026-05-06 15:29 | 62.25564 | -18.62159 | 36071 ft | 436 kts | 304° |
| 2026-05-06 15:29 | 62.28927 | -18.72983 | 36073 ft | 435 kts | 303° |
| 2026-05-06 15:30 | 62.32278 | -18.83822 | 36063 ft | 437 kts | 303° |
| 2026-05-06 15:30 | 62.35623 | -18.94696 | 36107 ft | 438 kts | 303° |
| 2026-05-06 15:31 | 62.38979 | -19.05654 | 36074 ft | 439 kts | 303° |
| 2026-05-06 15:31 | 62.42330 | -19.16650 | 36105 ft | 440 kts | 303° |
| 2026-05-06 15:32 | 62.45660 | -19.27632 | 36085 ft | 425 kts | 303° |
| 2026-05-06 15:32 | 62.47249 | -19.32894 | 36089 ft | 411 kts | 303° |
| 2026-05-06 15:32 | 62.48787 | -19.37999 | 36097 ft | 398 kts | 303° |
| 2026-05-06 15:32 | 62.50271 | -19.42922 | 36076 ft | 385 kts | 303° |
| 2026-05-06 15:33 | 62.51701 | -19.47695 | 36092 ft | 371 kts | 304° |
| 2026-05-06 15:33 | 62.53084 | -19.52304 | 36096 ft | 359 kts | 304° |
| 2026-05-06 15:33 | 62.56138 | -19.60940 | 36145 ft | 366 kts | 310° |
| 2026-05-06 15:34 | 62.59512 | -19.69480 | 36139 ft | 378 kts | 311° |
| 2026-05-06 15:34 | 62.62978 | -19.78283 | 36135 ft | 386 kts | 310° |
| 2026-05-06 15:35 | 62.66460 | -19.87231 | 36126 ft | 387 kts | 310° |
| 2026-05-06 15:35 | 62.69876 | -19.96095 | 36036 ft | 380 kts | 311° |
| 2026-05-06 15:36 | 62.71564 | -20.00486 | 35771 ft | 374 kts | 311° |
| 2026-05-06 15:36 | 62.73232 | -20.04833 | 35368 ft | 374 kts | 311° |
| 2026-05-06 15:36 | 62.74909 | -20.09207 | 34642 ft | 380 kts | 311° |
| 2026-05-06 15:36 | 62.76641 | -20.13718 | 33267 ft | 398 kts | 311° |
| 2026-05-06 15:37 | 62.78457 | -20.18484 | 31828 ft | 416 kts | 311° |
| 2026-05-06 15:37 | 62.80319 | -20.23377 | 30920 ft | 419 kts | 311° |
| 2026-05-06 15:37 | 62.82184 | -20.28282 | 30167 ft | 418 kts | 311° |
| 2026-05-06 15:37 | 62.84026 | -20.33150 | 29470 ft | 412 kts | 311° |
| 2026-05-06 15:38 | 62.85835 | -20.37941 | 28752 ft | 406 kts | 313° |
| 2026-05-06 15:38 | 62.87621 | -20.42680 | 28015 ft | 401 kts | 312° |
| 2026-05-06 15:38 | 62.89397 | -20.47383 | 27200 ft | 399 kts | 312° |
| 2026-05-06 15:38 | 62.91160 | -20.52070 | 26466 ft | 397 kts | 313° |
| 2026-05-06 15:39 | 62.92905 | -20.56725 | 25804 ft | 393 kts | 313° |
| 2026-05-06 15:39 | 62.94628 | -20.61330 | 25161 ft | 389 kts | 313° |
| 2026-05-06 15:39 | 62.96338 | -20.65910 | 24513 ft | 386 kts | 314° |
| 2026-05-06 15:39 | 62.98034 | -20.70457 | 23903 ft | 383 kts | 314° |
| 2026-05-06 15:40 | 62.99713 | -20.74970 | 23180 ft | 380 kts | 314° |
| 2026-05-06 15:40 | 63.01379 | -20.79462 | 22513 ft | 376 kts | 313° |
| 2026-05-06 15:40 | 63.03018 | -20.83885 | 21895 ft | 371 kts | 313° |
| 2026-05-06 15:40 | 63.04636 | -20.88264 | 21259 ft | 366 kts | 313° |
| 2026-05-06 15:41 | 63.06237 | -20.92601 | 20634 ft | 363 kts | 313° |
| 2026-05-06 15:41 | 63.07821 | -20.96900 | 20040 ft | 359 kts | 313° |
| 2026-05-06 15:41 | 63.09386 | -21.01156 | 19441 ft | 355 kts | 313° |
| 2026-05-06 15:41 | 63.10935 | -21.05374 | 18865 ft | 352 kts | 313° |
| 2026-05-06 15:42 | 63.12466 | -21.09553 | 18264 ft | 348 kts | 312° |
| 2026-05-06 15:42 | 63.13984 | -21.13701 | 17629 ft | 345 kts | 312° |
| 2026-05-06 15:42 | 63.15461 | -21.17745 | 17030 ft | 341 kts | 312° |
| 2026-05-06 15:42 | 63.16962 | -21.21864 | 16416 ft | 337 kts | 311° |
| 2026-05-06 15:43 | 63.18426 | -21.25890 | 15832 ft | 334 kts | 312° |
| 2026-05-06 15:43 | 63.19952 | -21.29567 | 15368 ft | 325 kts | 321° |
| 2026-05-06 15:43 | 63.21665 | -21.32814 | 14976 ft | 315 kts | 324° |
| 2026-05-06 15:43 | 63.23353 | -21.35838 | 14601 ft | 308 kts | 324° |
| 2026-05-06 15:44 | 63.24974 | -21.38750 | 14252 ft | 301 kts | 324° |
| 2026-05-06 15:44 | 63.26589 | -21.41695 | 13905 ft | 299 kts | 322° |
| 2026-05-06 15:44 | 63.28185 | -21.44644 | 13529 ft | 299 kts | 323° |
| 2026-05-06 15:44 | 63.29803 | -21.47661 | 13197 ft | 310 kts | 322° |
| 2026-05-06 15:45 | 63.31469 | -21.50788 | 12810 ft | 314 kts | 322° |
| 2026-05-06 15:45 | 63.33120 | -21.53904 | 12447 ft | 308 kts | 322° |
| 2026-05-06 15:45 | 63.34744 | -21.56978 | 12076 ft | 305 kts | 322° |
| 2026-05-06 15:45 | 63.36347 | -21.60020 | 11741 ft | 302 kts | 322° |
| 2026-05-06 15:46 | 63.37942 | -21.63045 | 11362 ft | 300 kts | 322° |
| 2026-05-06 15:46 | 63.39526 | -21.66051 | 11016 ft | 298 kts | 322° |
| 2026-05-06 15:46 | 63.41098 | -21.69042 | 10674 ft | 296 kts | 323° |
| 2026-05-06 15:46 | 63.42658 | -21.72010 | 10448 ft | 290 kts | 323° |
| 2026-05-06 15:47 | 63.44163 | -21.74880 | 10322 ft | 281 kts | 323° |
| 2026-05-06 15:47 | 63.45623 | -21.77673 | 10205 ft | 272 kts | 323° |
| 2026-05-06 15:47 | 63.47051 | -21.80401 | 9936 ft | 269 kts | 321° |
| 2026-05-06 15:47 | 63.48467 | -21.83108 | 9675 ft | 266 kts | 322° |
| 2026-05-06 15:48 | 63.49870 | -21.85796 | 9375 ft | 264 kts | 323° |
| 2026-05-06 15:48 | 63.51241 | -21.88424 | 9093 ft | 262 kts | 323° |
| 2026-05-06 15:48 | 63.52616 | -21.91069 | 8822 ft | 260 kts | 322° |
| 2026-05-06 15:48 | 63.53983 | -21.93697 | 8545 ft | 257 kts | 323° |
| 2026-05-06 15:49 | 63.55337 | -21.96307 | 8274 ft | 256 kts | 322° |
| 2026-05-06 15:49 | 63.56684 | -21.98905 | 7991 ft | 254 kts | 323° |
| 2026-05-06 15:49 | 63.58019 | -22.01485 | 7747 ft | 252 kts | 321° |
| 2026-05-06 15:49 | 63.59345 | -22.04051 | 7474 ft | 251 kts | 323° |
| 2026-05-06 15:50 | 63.60663 | -22.06604 | 7196 ft | 249 kts | 324° |
| 2026-05-06 15:50 | 63.61971 | -22.09144 | 6936 ft | 248 kts | 323° |
| 2026-05-06 15:50 | 63.63273 | -22.11673 | 6617 ft | 248 kts | 323° |
| 2026-05-06 15:50 | 63.64603 | -22.14253 | 6154 ft | 254 kts | 323° |
| 2026-05-06 15:51 | 63.65937 | -22.16849 | 5846 ft | 253 kts | 323° |
| 2026-05-06 15:51 | 63.67267 | -22.19443 | 5550 ft | 252 kts | 323° |
| 2026-05-06 15:51 | 63.68591 | -22.22029 | 5264 ft | 251 kts | 323° |
| 2026-05-06 15:51 | 63.69908 | -22.24603 | 4989 ft | 250 kts | 323° |
| 2026-05-06 15:52 | 63.71217 | -22.27164 | 4715 ft | 248 kts | 323° |
| 2026-05-06 15:52 | 63.72514 | -22.29705 | 4457 ft | 246 kts | 323° |
| 2026-05-06 15:52 | 63.73791 | -22.32214 | 4300 ft | 240 kts | 323° |
| 2026-05-06 15:52 | 63.75028 | -22.34649 | 4187 ft | 232 kts | 323° |
| 2026-05-06 15:53 | 63.76223 | -22.37007 | 4090 ft | 225 kts | 322° |
| 2026-05-06 15:53 | 63.77116 | -22.39900 | 3899 ft | 229 kts | 294° |
| 2026-05-06 15:53 | 63.77624 | -22.43281 | 3776 ft | 225 kts | 294° |
| 2026-05-06 15:53 | 63.78155 | -22.46608 | 3656 ft | 224 kts | 295° |
| 2026-05-06 15:54 | 63.78673 | -22.49840 | 3563 ft | 212 kts | 295° |
| 2026-05-06 15:54 | 63.79164 | -22.52891 | 3478 ft | 203 kts | 295° |
| 2026-05-06 15:54 | 63.79641 | -22.55847 | 3346 ft | 203 kts | 295° |
| 2026-05-06 15:54 | 63.80190 | -22.58768 | 3114 ft | 198 kts | 311° |
| 2026-05-06 15:55 | 63.81235 | -22.60331 | 2940 ft | 173 kts | 357° |
| 2026-05-06 15:55 | 63.82393 | -22.60430 | 2777 ft | 163 kts | 1° |
| 2026-05-06 15:55 | 63.83515 | -22.60512 | 2567 ft | 159 kts | 3° |
| 2026-05-06 15:55 | 63.84619 | -22.60537 | 2394 ft | 156 kts | 4° |
| 2026-05-06 15:56 | 63.85650 | -22.60545 | 2191 ft | 141 kts | 5° |
| 2026-05-06 15:56 | 63.86612 | -22.60544 | 2037 ft | 137 kts | 5° |
| 2026-05-06 15:56 | 63.87575 | -22.60540 | 1859 ft | 138 kts | 4° |
| 2026-05-06 15:56 | 63.88519 | -22.60542 | 1792 ft | 135 kts | 4° |
| 2026-05-06 15:57 | 63.89462 | -22.60542 | 1633 ft | 135 kts | 4° |
| 2026-05-06 15:57 | 63.90379 | -22.60542 | 1456 ft | 130 kts | 4° |
| 2026-05-06 15:57 | 63.91278 | -22.60542 | 1275 ft | 128 kts | 4° |
| 2026-05-06 15:57 | 63.92157 | -22.60541 | 1085 ft | 125 kts | 4° |
| 2026-05-06 15:58 | 63.93032 | -22.60528 | 938 ft | 124 kts | 4° |
| 2026-05-06 15:58 | 63.93883 | -22.60518 | 737 ft | 120 kts | 5° |
| 2026-05-06 15:58 | 63.94703 | -22.60531 | 549 ft | 118 kts | 3° |
| 2026-05-06 15:58 | 63.95563 | -22.60535 | 379 ft | 124 kts | 4° |
| 2026-05-06 15:59 | 63.96426 | -22.60542 | 201 ft | 124 kts | 3° |
| 2026-05-06 15:59 | 63.97240 | -22.60544 | 166 ft | 106 kts | 2° |
| 2026-05-06 15:59 | 63.97858 | -22.60539 | 170 ft | 71 kts | 360° |
| 2026-05-06 15:59 | 63.98225 | -22.60540 | 172 ft | 36 kts | 360° |
| 2026-05-06 16:00 | 63.98443 | -22.60538 | 190 ft | 30 kts | 359° |
| 2026-05-06 16:00 | 63.98642 | -22.60539 | 175 ft | 28 kts | 0° |
| 2026-05-06 16:00 | 63.98806 | -22.60610 | 175 ft | 20 kts | 317° |
| 2026-05-06 16:00 | 63.98885 | -22.60790 | 171 ft | 0 kts | 314° |
| 2026-05-06 16:02 | 63.98889 | -22.60800 | 171 ft | 5 kts | 314° |
| 2026-05-06 16:02 | 63.98941 | -22.60914 | 172 ft | 13 kts | 317° |
| 2026-05-06 16:03 | 63.98973 | -22.60941 | 170 ft | 3 kts | 3° |
| 2026-05-06 16:03 | 63.99021 | -22.60938 | 169 ft | 12 kts | 1° |
| 2026-05-06 16:03 | 63.99125 | -22.60938 | 164 ft | 17 kts | 1° |
| 2026-05-06 16:03 | 63.99173 | -22.61080 | 160 ft | 13 kts | 270° |
| 2026-05-06 16:04 | 63.99173 | -22.61332 | 154 ft | 18 kts | 272° |
| 2026-05-06 16:04 | 63.99175 | -22.61634 | 147 ft | 20 kts | 272° |
| 2026-05-06 16:04 | 63.99172 | -22.61939 | 141 ft | 7 kts | 272° |
| 2026-05-06 16:04 | 63.99208 | -22.61985 | 141 ft | 7 kts | 355° |
| 2026-05-06 16:05 | 63.99262 | -22.61987 | 141 ft | 8 kts | 359° |
| 2026-05-06 16:05 | 63.99317 | -22.61990 | 141 ft | 7 kts | 346° |
| 2026-05-06 16:05 | 63.99328 | -22.62063 | 141 ft | 5 kts | 264° |
| 2026-05-06 16:05 | 63.99327 | -22.62146 | 141 ft | 5 kts | 270° |
| 2026-05-06 16:06 | 63.99327 | -22.62154 | 141 ft | 0 kts | 269° |